sensor_id;sensor_type;location;lat;lon;timestamp;temperature;humidity
7163;DHT22;3623;47.098;15.446;2024-03-07T00:00:01;5.90;99.90
7163;DHT22;3623;47.098;15.446;2024-03-07T00:02:29;6.10;99.90
7163;DHT22;3623;47.098;15.446;2024-03-07T00:04:56;6.30;99.90
7163;DHT22;3623;47.098;15.446;2024-03-07T00:07:23;6.40;99.90
7163;DHT22;3623;47.098;15.446;2024-03-07T00:09:52;6.30;99.90
7163;DHT22;3623;47.098;15.446;2024-03-07T00:12:21;6.20;99.90
7163;DHT22;3623;47.098;15.446;2024-03-07T00:14:49;6.20;99.90
7163;DHT22;3623;47.098;15.446;2024-03-07T00:17:16;6.10;99.90
7163;DHT22;3623;47.098;15.446;2024-03-07T00:19:45;6.10;99.90
7163;DHT22;3623;47.098;15.446;2024-03-07T00:22:13;6.20;99.90
7163;DHT22;3623;47.098;15.446;2024-03-07T00:24:40;6.20;99.90
7163;DHT22;3623;47.098;15.446;2024-03-07T00:27:10;6.20;99.90
7163;DHT22;3623;47.098;15.446;2024-03-07T00:29:40;6.10;99.90
7163;DHT22;3623;47.098;15.446;2024-03-07T00:32:07;6.10;99.90
7163;DHT22;3623;47.098;15.446;2024-03-07T00:34:34;6.10;99.90
7163;DHT22;3623;47.098;15.446;2024-03-07T00:37:04;6.20;99.90
7163;DHT22;3623;47.098;15.446;2024-03-07T00:39:31;6.30;99.90
7163;DHT22;3623;47.098;15.446;2024-03-07T00:41:59;6.30;99.90
7163;DHT22;3623;47.098;15.446;2024-03-07T00:44:27;6.40;99.90
7163;DHT22;3623;47.098;15.446;2024-03-07T00:46:54;6.30;99.90
7163;DHT22;3623;47.098;15.446;2024-03-07T00:49:22;6.20;99.90
7163;DHT22;3623;47.098;15.446;2024-03-07T00:51:50;6.10;99.90
7163;DHT22;3623;47.098;15.446;2024-03-07T00:54:17;6.00;99.90
7163;DHT22;3623;47.098;15.446;2024-03-07T00:56:44;5.90;99.90
7163;DHT22;3623;47.098;15.446;2024-03-07T00:59:14;5.90;99.90
7163;DHT22;3623;47.098;15.446;2024-03-07T01:01:43;5.90;99.90
7163;DHT22;3623;47.098;15.446;2024-03-07T01:04:11;5.80;99.90
7163;DHT22;3623;47.098;15.446;2024-03-07T01:06:38;5.90;99.90
7163;DHT22;3623;47.098;15.446;2024-03-07T01:09:06;5.80;99.90
7163;DHT22;3623;47.098;15.446;2024-03-07T01:11:40;5.70;99.90
7163;DHT22;3623;47.098;15.446;2024-03-07T01:14:07;5.70;99.90
7163;DHT22;3623;47.098;15.446;2024-03-07T01:16:34;5.60;99.90
7163;DHT22;3623;47.098;15.446;2024-03-07T01:19:03;5.60;99.90
7163;DHT22;3623;47.098;15.446;2024-03-07T01:21:32;5.50;99.90
7163;DHT22;3623;47.098;15.446;2024-03-07T01:24:00;5.50;99.90
7163;DHT22;3623;47.098;15.446;2024-03-07T01:26:28;5.50;99.90
7163;DHT22;3623;47.098;15.446;2024-03-07T01:28:55;5.50;99.90
7163;DHT22;3623;47.098;15.446;2024-03-07T01:31:22;5.60;99.90
7163;DHT22;3623;47.098;15.446;2024-03-07T01:33:49;5.60;99.90
7163;DHT22;3623;47.098;15.446;2024-03-07T01:36:19;5.70;99.90
7163;DHT22;3623;47.098;15.446;2024-03-07T01:38:46;5.80;99.90
7163;DHT22;3623;47.098;15.446;2024-03-07T01:41:13;5.60;99.90
7163;DHT22;3623;47.098;15.446;2024-03-07T01:43:41;5.50;99.90
7163;DHT22;3623;47.098;15.446;2024-03-07T01:46:08;5.40;99.90
7163;DHT22;3623;47.098;15.446;2024-03-07T01:48:37;5.50;99.90
7163;DHT22;3623;47.098;15.446;2024-03-07T01:51:06;5.60;99.90
7163;DHT22;3623;47.098;15.446;2024-03-07T01:53:35;5.60;99.90
7163;DHT22;3623;47.098;15.446;2024-03-07T01:56:03;5.60;99.90
7163;DHT22;3623;47.098;15.446;2024-03-07T01:58:31;5.50;99.90
7163;DHT22;3623;47.098;15.446;2024-03-07T02:00:59;5.40;99.90
7163;DHT22;3623;47.098;15.446;2024-03-07T02:03:26;5.50;99.90
7163;DHT22;3623;47.098;15.446;2024-03-07T02:05:53;5.50;99.90
7163;DHT22;3623;47.098;15.446;2024-03-07T02:08:20;5.40;99.90
7163;DHT22;3623;47.098;15.446;2024-03-07T02:10:49;5.40;99.90
7163;DHT22;3623;47.098;15.446;2024-03-07T02:13:16;5.50;99.90
7163;DHT22;3623;47.098;15.446;2024-03-07T02:15:44;5.50;99.90
7163;DHT22;3623;47.098;15.446;2024-03-07T02:18:11;5.60;99.90
7163;DHT22;3623;47.098;15.446;2024-03-07T02:20:43;5.50;99.90
7163;DHT22;3623;47.098;15.446;2024-03-07T02:23:11;5.50;99.90
7163;DHT22;3623;47.098;15.446;2024-03-07T02:25:38;5.50;99.90
7163;DHT22;3623;47.098;15.446;2024-03-07T02:28:05;5.50;99.90
7163;DHT22;3623;47.098;15.446;2024-03-07T02:30:33;5.50;99.90
7163;DHT22;3623;47.098;15.446;2024-03-07T02:33:00;5.50;99.90
7163;DHT22;3623;47.098;15.446;2024-03-07T02:35:33;5.50;99.90
7163;DHT22;3623;47.098;15.446;2024-03-07T02:38:03;5.40;99.90
7163;DHT22;3623;47.098;15.446;2024-03-07T02:40:31;5.30;99.90
7163;DHT22;3623;47.098;15.446;2024-03-07T02:42:58;5.30;99.90
7163;DHT22;3623;47.098;15.446;2024-03-07T02:45:25;5.30;99.90
7163;DHT22;3623;47.098;15.446;2024-03-07T02:47:52;5.30;99.90
7163;DHT22;3623;47.098;15.446;2024-03-07T02:50:20;5.20;99.90
7163;DHT22;3623;47.098;15.446;2024-03-07T02:52:48;5.20;99.90
7163;DHT22;3623;47.098;15.446;2024-03-07T02:55:19;5.10;99.90
7163;DHT22;3623;47.098;15.446;2024-03-07T02:57:47;5.10;99.90
7163;DHT22;3623;47.098;15.446;2024-03-07T03:00:14;5.10;99.90
7163;DHT22;3623;47.098;15.446;2024-03-07T03:02:47;5.20;99.90
7163;DHT22;3623;47.098;15.446;2024-03-07T03:05:15;5.20;99.90
7163;DHT22;3623;47.098;15.446;2024-03-07T03:07:42;5.20;99.90
7163;DHT22;3623;47.098;15.446;2024-03-07T03:10:10;5.30;99.90
7163;DHT22;3623;47.098;15.446;2024-03-07T03:12:41;5.30;99.90
7163;DHT22;3623;47.098;15.446;2024-03-07T03:15:10;5.30;99.90
7163;DHT22;3623;47.098;15.446;2024-03-07T03:17:37;5.30;99.90
7163;DHT22;3623;47.098;15.446;2024-03-07T03:20:05;5.40;99.90
7163;DHT22;3623;47.098;15.446;2024-03-07T03:22:41;5.30;99.90
7163;DHT22;3623;47.098;15.446;2024-03-07T03:25:09;5.50;99.90
7163;DHT22;3623;47.098;15.446;2024-03-07T03:27:37;5.30;99.90
7163;DHT22;3623;47.098;15.446;2024-03-07T03:30:08;5.40;99.90
7163;DHT22;3623;47.098;15.446;2024-03-07T03:32:39;5.50;99.90
7163;DHT22;3623;47.098;15.446;2024-03-07T03:35:07;5.50;99.90
7163;DHT22;3623;47.098;15.446;2024-03-07T03:37:40;5.50;99.90
7163;DHT22;3623;47.098;15.446;2024-03-07T03:40:08;5.60;99.90
7163;DHT22;3623;47.098;15.446;2024-03-07T03:42:37;5.60;99.90
7163;DHT22;3623;47.098;15.446;2024-03-07T03:45:07;5.60;99.90
7163;DHT22;3623;47.098;15.446;2024-03-07T03:47:35;5.60;99.90
7163;DHT22;3623;47.098;15.446;2024-03-07T03:50:06;5.70;99.90
7163;DHT22;3623;47.098;15.446;2024-03-07T03:52:34;5.70;99.90
7163;DHT22;3623;47.098;15.446;2024-03-07T03:55:02;5.80;99.90
7163;DHT22;3623;47.098;15.446;2024-03-07T03:57:34;5.80;99.90
7163;DHT22;3623;47.098;15.446;2024-03-07T04:00:02;5.80;99.90
7163;DHT22;3623;47.098;15.446;2024-03-07T04:02:35;5.80;99.90
7163;DHT22;3623;47.098;15.446;2024-03-07T04:05:03;5.80;99.90
7163;DHT22;3623;47.098;15.446;2024-03-07T04:07:30;5.80;99.90
7163;DHT22;3623;47.098;15.446;2024-03-07T04:09:58;5.90;99.90
7163;DHT22;3623;47.098;15.446;2024-03-07T04:12:25;5.90;99.90
7163;DHT22;3623;47.098;15.446;2024-03-07T04:14:53;5.80;99.90
7163;DHT22;3623;47.098;15.446;2024-03-07T04:17:21;5.90;99.90
7163;DHT22;3623;47.098;15.446;2024-03-07T04:19:50;5.80;99.90
7163;DHT22;3623;47.098;15.446;2024-03-07T04:22:17;5.80;99.90
7163;DHT22;3623;47.098;15.446;2024-03-07T04:24:45;5.70;99.90
7163;DHT22;3623;47.098;15.446;2024-03-07T04:27:12;5.60;99.90
7163;DHT22;3623;47.098;15.446;2024-03-07T04:29:39;5.70;99.90
7163;DHT22;3623;47.098;15.446;2024-03-07T04:32:06;5.60;99.90
7163;DHT22;3623;47.098;15.446;2024-03-07T04:34:35;5.60;99.90
7163;DHT22;3623;47.098;15.446;2024-03-07T04:37:03;5.60;99.90
7163;DHT22;3623;47.098;15.446;2024-03-07T04:39:31;5.60;99.90
7163;DHT22;3623;47.098;15.446;2024-03-07T04:41:59;5.60;99.90
7163;DHT22;3623;47.098;15.446;2024-03-07T04:44:27;5.60;99.90
7163;DHT22;3623;47.098;15.446;2024-03-07T04:46:54;5.60;99.90
7163;DHT22;3623;47.098;15.446;2024-03-07T04:49:22;5.50;99.90
7163;DHT22;3623;47.098;15.446;2024-03-07T04:51:50;5.50;99.90
7163;DHT22;3623;47.098;15.446;2024-03-07T04:54:20;5.60;99.90
7163;DHT22;3623;47.098;15.446;2024-03-07T04:56:49;5.60;99.90
7163;DHT22;3623;47.098;15.446;2024-03-07T04:59:17;5.60;99.90
7163;DHT22;3623;47.098;15.446;2024-03-07T05:01:45;5.70;99.90
7163;DHT22;3623;47.098;15.446;2024-03-07T05:04:14;5.70;99.90
7163;DHT22;3623;47.098;15.446;2024-03-07T05:06:41;5.80;99.90
7163;DHT22;3623;47.098;15.446;2024-03-07T05:09:09;5.80;99.90
7163;DHT22;3623;47.098;15.446;2024-03-07T05:11:50;5.90;99.90
7163;DHT22;3623;47.098;15.446;2024-03-07T05:14:18;5.90;99.90
7163;DHT22;3623;47.098;15.446;2024-03-07T05:16:45;5.90;99.90
7163;DHT22;3623;47.098;15.446;2024-03-07T05:19:27;5.90;99.90
7163;DHT22;3623;47.098;15.446;2024-03-07T05:21:56;5.90;99.90
7163;DHT22;3623;47.098;15.446;2024-03-07T05:24:24;6.00;99.90
7163;DHT22;3623;47.098;15.446;2024-03-07T05:26:53;5.90;99.90
7163;DHT22;3623;47.098;15.446;2024-03-07T05:29:20;6.00;99.90
7163;DHT22;3623;47.098;15.446;2024-03-07T05:31:48;5.90;99.90
7163;DHT22;3623;47.098;15.446;2024-03-07T05:34:16;5.90;99.90
7163;DHT22;3623;47.098;15.446;2024-03-07T05:36:45;5.80;99.90
7163;DHT22;3623;47.098;15.446;2024-03-07T05:39:13;5.90;99.90
7163;DHT22;3623;47.098;15.446;2024-03-07T05:41:42;6.00;99.90
7163;DHT22;3623;47.098;15.446;2024-03-07T05:44:12;6.00;99.90
7163;DHT22;3623;47.098;15.446;2024-03-07T05:46:40;5.90;99.90
7163;DHT22;3623;47.098;15.446;2024-03-07T05:49:12;5.90;99.90
7163;DHT22;3623;47.098;15.446;2024-03-07T05:51:39;5.90;99.90
7163;DHT22;3623;47.098;15.446;2024-03-07T05:54:07;6.00;99.90
7163;DHT22;3623;47.098;15.446;2024-03-07T05:56:35;6.00;99.90
7163;DHT22;3623;47.098;15.446;2024-03-07T05:59:02;6.00;99.90
7163;DHT22;3623;47.098;15.446;2024-03-07T06:01:34;6.00;99.90
7163;DHT22;3623;47.098;15.446;2024-03-07T06:04:02;6.10;99.90
7163;DHT22;3623;47.098;15.446;2024-03-07T06:06:31;6.10;99.90
7163;DHT22;3623;47.098;15.446;2024-03-07T06:09:00;6.20;99.90
7163;DHT22;3623;47.098;15.446;2024-03-07T06:11:28;6.30;99.90
7163;DHT22;3623;47.098;15.446;2024-03-07T06:13:55;6.20;99.90
7163;DHT22;3623;47.098;15.446;2024-03-07T06:16:24;6.30;99.90
7163;DHT22;3623;47.098;15.446;2024-03-07T06:18:52;6.30;99.90
7163;DHT22;3623;47.098;15.446;2024-03-07T06:21:19;6.30;99.90
7163;DHT22;3623;47.098;15.446;2024-03-07T06:23:47;6.30;99.90
7163;DHT22;3623;47.098;15.446;2024-03-07T06:26:18;6.30;99.90
7163;DHT22;3623;47.098;15.446;2024-03-07T06:29:02;6.40;99.90
7163;DHT22;3623;47.098;15.446;2024-03-07T06:31:31;6.40;99.90
7163;DHT22;3623;47.098;15.446;2024-03-07T06:33:59;6.50;99.90
7163;DHT22;3623;47.098;15.446;2024-03-07T06:36:26;6.50;99.90
7163;DHT22;3623;47.098;15.446;2024-03-07T06:38:54;6.50;99.90
7163;DHT22;3623;47.098;15.446;2024-03-07T06:41:21;6.50;99.90
7163;DHT22;3623;47.098;15.446;2024-03-07T06:43:48;6.60;99.90
7163;DHT22;3623;47.098;15.446;2024-03-07T06:46:15;6.60;99.90
7163;DHT22;3623;47.098;15.446;2024-03-07T06:48:43;6.60;99.90
7163;DHT22;3623;47.098;15.446;2024-03-07T06:51:12;6.60;99.90
7163;DHT22;3623;47.098;15.446;2024-03-07T06:53:40;6.70;99.90
7163;DHT22;3623;47.098;15.446;2024-03-07T06:56:07;6.70;99.90
7163;DHT22;3623;47.098;15.446;2024-03-07T06:58:34;6.70;99.90
7163;DHT22;3623;47.098;15.446;2024-03-07T07:01:02;6.70;99.90
7163;DHT22;3623;47.098;15.446;2024-03-07T07:03:32;6.80;99.90
7163;DHT22;3623;47.098;15.446;2024-03-07T07:06:01;6.90;99.90
7163;DHT22;3623;47.098;15.446;2024-03-07T07:08:30;7.00;99.90
7163;DHT22;3623;47.098;15.446;2024-03-07T07:10:57;7.10;99.90
7163;DHT22;3623;47.098;15.446;2024-03-07T07:13:24;7.20;99.90
7163;DHT22;3623;47.098;15.446;2024-03-07T07:15:51;7.30;99.90
7163;DHT22;3623;47.098;15.446;2024-03-07T07:18:20;7.30;99.90
7163;DHT22;3623;47.098;15.446;2024-03-07T07:20:47;7.40;99.90
7163;DHT22;3623;47.098;15.446;2024-03-07T07:23:15;7.40;99.90
7163;DHT22;3623;47.098;15.446;2024-03-07T07:25:43;7.50;99.90
7163;DHT22;3623;47.098;15.446;2024-03-07T07:28:10;7.60;99.90
7163;DHT22;3623;47.098;15.446;2024-03-07T07:30:37;7.60;99.90
7163;DHT22;3623;47.098;15.446;2024-03-07T07:33:04;7.70;99.90
7163;DHT22;3623;47.098;15.446;2024-03-07T07:35:32;8.00;99.90
7163;DHT22;3623;47.098;15.446;2024-03-07T07:38:00;8.10;99.90
7163;DHT22;3623;47.098;15.446;2024-03-07T07:40:27;8.30;99.80
7163;DHT22;3623;47.098;15.446;2024-03-07T07:42:58;8.30;99.60
7163;DHT22;3623;47.098;15.446;2024-03-07T07:45:27;8.30;99.60
7163;DHT22;3623;47.098;15.446;2024-03-07T07:47:54;8.50;99.60
7163;DHT22;3623;47.098;15.446;2024-03-07T07:50:23;8.50;98.60
7163;DHT22;3623;47.098;15.446;2024-03-07T07:52:52;8.30;98.70
7163;DHT22;3623;47.098;15.446;2024-03-07T07:55:21;8.40;98.70
7163;DHT22;3623;47.098;15.446;2024-03-07T07:57:50;8.30;98.60
7163;DHT22;3623;47.098;15.446;2024-03-07T08:00:20;8.30;99.00
7163;DHT22;3623;47.098;15.446;2024-03-07T08:02:52;8.30;98.90
7163;DHT22;3623;47.098;15.446;2024-03-07T08:05:20;8.10;98.40
7163;DHT22;3623;47.098;15.446;2024-03-07T08:07:49;8.10;98.30
7163;DHT22;3623;47.098;15.446;2024-03-07T08:10:18;8.10;99.00
7163;DHT22;3623;47.098;15.446;2024-03-07T08:12:46;8.10;99.40
7163;DHT22;3623;47.098;15.446;2024-03-07T08:15:14;8.20;98.80
7163;DHT22;3623;47.098;15.446;2024-03-07T08:17:44;8.20;98.60
7163;DHT22;3623;47.098;15.446;2024-03-07T08:20:13;8.40;99.30
7163;DHT22;3623;47.098;15.446;2024-03-07T08:22:42;8.50;98.60
7163;DHT22;3623;47.098;15.446;2024-03-07T08:25:10;8.70;98.70
7163;DHT22;3623;47.098;15.446;2024-03-07T08:27:38;8.80;98.10
7163;DHT22;3623;47.098;15.446;2024-03-07T08:30:08;8.90;98.10
7163;DHT22;3623;47.098;15.446;2024-03-07T08:32:39;8.90;97.30
7163;DHT22;3623;47.098;15.446;2024-03-07T08:35:09;9.00;97.90
7163;DHT22;3623;47.098;15.446;2024-03-07T08:37:37;9.00;97.30
7163;DHT22;3623;47.098;15.446;2024-03-07T08:40:06;9.10;97.60
7163;DHT22;3623;47.098;15.446;2024-03-07T08:42:36;9.10;97.60
7163;DHT22;3623;47.098;15.446;2024-03-07T08:45:04;9.20;97.10
7163;DHT22;3623;47.098;15.446;2024-03-07T08:47:32;9.20;97.70
7163;DHT22;3623;47.098;15.446;2024-03-07T08:50:00;9.30;97.80
7163;DHT22;3623;47.098;15.446;2024-03-07T08:52:33;9.20;97.70
7163;DHT22;3623;47.098;15.446;2024-03-07T08:55:00;9.10;96.60
7163;DHT22;3623;47.098;15.446;2024-03-07T08:57:27;9.20;97.00
7163;DHT22;3623;47.098;15.446;2024-03-07T08:59:54;9.40;97.20
7163;DHT22;3623;47.098;15.446;2024-03-07T09:02:22;9.30;96.60
7163;DHT22;3623;47.098;15.446;2024-03-07T09:04:49;9.30;96.80
7163;DHT22;3623;47.098;15.446;2024-03-07T09:07:17;9.20;96.10
7163;DHT22;3623;47.098;15.446;2024-03-07T09:09:47;9.20;97.10
7163;DHT22;3623;47.098;15.446;2024-03-07T09:12:14;9.20;96.80
7163;DHT22;3623;47.098;15.446;2024-03-07T09:14:41;9.10;96.70
7163;DHT22;3623;47.098;15.446;2024-03-07T09:17:08;9.10;96.70
7163;DHT22;3623;47.098;15.446;2024-03-07T09:19:35;9.00;96.10
7163;DHT22;3623;47.098;15.446;2024-03-07T09:22:02;8.80;96.10
7163;DHT22;3623;47.098;15.446;2024-03-07T09:24:30;8.80;99.30
7163;DHT22;3623;47.098;15.446;2024-03-07T09:26:59;8.70;99.90
7163;DHT22;3623;47.098;15.446;2024-03-07T09:29:26;8.60;99.90
7163;DHT22;3623;47.098;15.446;2024-03-07T09:31:54;8.50;99.90
7163;DHT22;3623;47.098;15.446;2024-03-07T09:34:24;8.40;99.90
7163;DHT22;3623;47.098;15.446;2024-03-07T09:36:51;8.50;99.90
7163;DHT22;3623;47.098;15.446;2024-03-07T09:39:20;8.60;99.90
7163;DHT22;3623;47.098;15.446;2024-03-07T09:41:47;8.50;99.90
7163;DHT22;3623;47.098;15.446;2024-03-07T09:44:19;8.60;99.90
7163;DHT22;3623;47.098;15.446;2024-03-07T09:46:50;8.60;99.90
7163;DHT22;3623;47.098;15.446;2024-03-07T09:49:18;8.50;99.90
7163;DHT22;3623;47.098;15.446;2024-03-07T09:51:47;8.50;99.90
7163;DHT22;3623;47.098;15.446;2024-03-07T09:54:18;8.60;99.90
7163;DHT22;3623;47.098;15.446;2024-03-07T09:56:45;8.70;99.90
7163;DHT22;3623;47.098;15.446;2024-03-07T09:59:19;8.80;99.60
7163;DHT22;3623;47.098;15.446;2024-03-07T10:01:48;9.00;99.90
7163;DHT22;3623;47.098;15.446;2024-03-07T10:04:22;8.90;99.40
7163;DHT22;3623;47.098;15.446;2024-03-07T10:06:51;9.00;99.50
7163;DHT22;3623;47.098;15.446;2024-03-07T10:09:21;8.90;99.50
7163;DHT22;3623;47.098;15.446;2024-03-07T10:11:56;8.70;99.00
7163;DHT22;3623;47.098;15.446;2024-03-07T10:14:24;8.90;99.90
7163;DHT22;3623;47.098;15.446;2024-03-07T10:16:53;9.10;99.70
7163;DHT22;3623;47.098;15.446;2024-03-07T10:19:22;9.10;99.10
7163;DHT22;3623;47.098;15.446;2024-03-07T10:21:49;8.90;98.50
7163;DHT22;3623;47.098;15.446;2024-03-07T10:24:17;9.00;99.90
7163;DHT22;3623;47.098;15.446;2024-03-07T10:26:50;9.00;98.80
7163;DHT22;3623;47.098;15.446;2024-03-07T10:29:17;9.00;99.30
7163;DHT22;3623;47.098;15.446;2024-03-07T10:31:46;9.00;98.30
7163;DHT22;3623;47.098;15.446;2024-03-07T10:34:14;8.90;99.00
7163;DHT22;3623;47.098;15.446;2024-03-07T10:36:43;8.80;99.00
7163;DHT22;3623;47.098;15.446;2024-03-07T10:39:11;8.70;99.30
7163;DHT22;3623;47.098;15.446;2024-03-07T10:41:44;8.70;99.50
7163;DHT22;3623;47.098;15.446;2024-03-07T10:44:17;8.70;98.90
7163;DHT22;3623;47.098;15.446;2024-03-07T10:46:52;8.60;99.90
7163;DHT22;3623;47.098;15.446;2024-03-07T10:49:20;8.50;99.90
7163;DHT22;3623;47.098;15.446;2024-03-07T10:51:57;8.50;99.90
7163;DHT22;3623;47.098;15.446;2024-03-07T10:54:36;8.70;99.90
7163;DHT22;3623;47.098;15.446;2024-03-07T10:57:15;8.70;99.40
7163;DHT22;3623;47.098;15.446;2024-03-07T10:59:49;8.80;99.10
7163;DHT22;3623;47.098;15.446;2024-03-07T11:02:27;8.80;99.90
7163;DHT22;3623;47.098;15.446;2024-03-07T11:04:58;8.90;99.10
7163;DHT22;3623;47.098;15.446;2024-03-07T11:07:26;8.90;99.80
7163;DHT22;3623;47.098;15.446;2024-03-07T11:09:55;8.70;99.20
7163;DHT22;3623;47.098;15.446;2024-03-07T11:12:24;8.80;99.70
7163;DHT22;3623;47.098;15.446;2024-03-07T11:14:55;8.70;99.60
7163;DHT22;3623;47.098;15.446;2024-03-07T11:17:25;8.80;99.70
7163;DHT22;3623;47.098;15.446;2024-03-07T11:19:52;8.80;99.80
7163;DHT22;3623;47.098;15.446;2024-03-07T11:22:29;8.80;99.90
7163;DHT22;3623;47.098;15.446;2024-03-07T11:25:03;8.70;99.40
7163;DHT22;3623;47.098;15.446;2024-03-07T11:27:33;8.60;98.60
7163;DHT22;3623;47.098;15.446;2024-03-07T11:30:08;8.40;99.20
7163;DHT22;3623;47.098;15.446;2024-03-07T11:32:39;8.30;99.40
7163;DHT22;3623;47.098;15.446;2024-03-07T11:35:12;8.30;99.50
7163;DHT22;3623;47.098;15.446;2024-03-07T11:37:41;8.40;99.80
7163;DHT22;3623;47.098;15.446;2024-03-07T11:40:12;8.60;99.90
7163;DHT22;3623;47.098;15.446;2024-03-07T11:42:47;8.80;99.20
7163;DHT22;3623;47.098;15.446;2024-03-07T11:45:15;9.00;99.30
7163;DHT22;3623;47.098;15.446;2024-03-07T11:47:52;9.10;98.50
7163;DHT22;3623;47.098;15.446;2024-03-07T11:50:26;9.20;98.40
7163;DHT22;3623;47.098;15.446;2024-03-07T11:52:53;9.40;98.70
7163;DHT22;3623;47.098;15.446;2024-03-07T11:55:21;10.00;97.80
7163;DHT22;3623;47.098;15.446;2024-03-07T11:57:49;10.90;99.30
7163;DHT22;3623;47.098;15.446;2024-03-07T12:00:18;11.10;97.70
7163;DHT22;3623;47.098;15.446;2024-03-07T12:02:46;10.90;96.10
7163;DHT22;3623;47.098;15.446;2024-03-07T12:05:16;10.30;96.80
7163;DHT22;3623;47.098;15.446;2024-03-07T12:07:45;9.80;97.20
7163;DHT22;3623;47.098;15.446;2024-03-07T12:10:13;9.40;97.90
7163;DHT22;3623;47.098;15.446;2024-03-07T12:12:40;9.10;98.60
7163;DHT22;3623;47.098;15.446;2024-03-07T12:15:09;9.00;98.30
7163;DHT22;3623;47.098;15.446;2024-03-07T12:17:45;8.70;98.80
7163;DHT22;3623;47.098;15.446;2024-03-07T12:20:17;8.60;99.10
7163;DHT22;3623;47.098;15.446;2024-03-07T12:22:56;8.50;99.40
7163;DHT22;3623;47.098;15.446;2024-03-07T12:25:23;8.50;99.60
7163;DHT22;3623;47.098;15.446;2024-03-07T12:28:01;8.40;99.40
7163;DHT22;3623;47.098;15.446;2024-03-07T12:30:33;8.20;98.90
7163;DHT22;3623;47.098;15.446;2024-03-07T12:33:02;8.20;99.70
7163;DHT22;3623;47.098;15.446;2024-03-07T12:35:34;7.90;99.10
7163;DHT22;3623;47.098;15.446;2024-03-07T12:38:02;8.00;99.40
7163;DHT22;3623;47.098;15.446;2024-03-07T12:40:30;8.30;99.60
7163;DHT22;3623;47.098;15.446;2024-03-07T12:42:59;8.70;99.90
7163;DHT22;3623;47.098;15.446;2024-03-07T12:45:28;9.20;98.50
7163;DHT22;3623;47.098;15.446;2024-03-07T12:47:59;10.40;98.50
7163;DHT22;3623;47.098;15.446;2024-03-07T12:50:30;11.50;98.10
7163;DHT22;3623;47.098;15.446;2024-03-07T12:53:02;12.40;98.50
7163;DHT22;3623;47.098;15.446;2024-03-07T12:55:31;13.40;95.10
7163;DHT22;3623;47.098;15.446;2024-03-07T12:57:59;13.80;93.00
7163;DHT22;3623;47.098;15.446;2024-03-07T13:00:26;14.40;93.70
7163;DHT22;3623;47.098;15.446;2024-03-07T13:02:55;14.20;92.90
7163;DHT22;3623;47.098;15.446;2024-03-07T13:05:23;13.40;92.30
7163;DHT22;3623;47.098;15.446;2024-03-07T13:07:51;13.00;92.90
7163;DHT22;3623;47.098;15.446;2024-03-07T13:10:20;12.10;95.40
7163;DHT22;3623;47.098;15.446;2024-03-07T13:12:47;11.30;95.50
7163;DHT22;3623;47.098;15.446;2024-03-07T13:15:16;11.60;95.90
7163;DHT22;3623;47.098;15.446;2024-03-07T13:17:43;12.50;95.80
7163;DHT22;3623;47.098;15.446;2024-03-07T13:20:11;12.60;93.30
7163;DHT22;3623;47.098;15.446;2024-03-07T13:22:41;11.70;93.40
7163;DHT22;3623;47.098;15.446;2024-03-07T13:25:11;10.90;94.60
7163;DHT22;3623;47.098;15.446;2024-03-07T13:27:50;10.50;95.70
7163;DHT22;3623;47.098;15.446;2024-03-07T13:30:18;10.00;96.50
7163;DHT22;3623;47.098;15.446;2024-03-07T13:32:50;9.90;97.80
7163;DHT22;3623;47.098;15.446;2024-03-07T13:35:21;9.70;99.70
7163;DHT22;3623;47.098;15.446;2024-03-07T13:37:50;9.40;99.90
7163;DHT22;3623;47.098;15.446;2024-03-07T13:40:17;9.10;99.90
7163;DHT22;3623;47.098;15.446;2024-03-07T13:42:55;9.00;99.90
7163;DHT22;3623;47.098;15.446;2024-03-07T13:45:24;8.70;99.80
7163;DHT22;3623;47.098;15.446;2024-03-07T13:47:52;8.50;99.80
7163;DHT22;3623;47.098;15.446;2024-03-07T13:50:22;8.50;99.90
7163;DHT22;3623;47.098;15.446;2024-03-07T13:52:51;8.40;99.90
7163;DHT22;3623;47.098;15.446;2024-03-07T13:55:53;8.40;99.90
7163;DHT22;3623;47.098;15.446;2024-03-07T13:58:50;8.20;99.90
7163;DHT22;3623;47.098;15.446;2024-03-07T14:01:29;8.10;99.90
7163;DHT22;3623;47.098;15.446;2024-03-07T14:04:24;7.90;99.90
7163;DHT22;3623;47.098;15.446;2024-03-07T14:07:09;7.70;99.90
7163;DHT22;3623;47.098;15.446;2024-03-07T14:09:51;7.60;99.90
7163;DHT22;3623;47.098;15.446;2024-03-07T14:12:35;7.50;99.90
7163;DHT22;3623;47.098;15.446;2024-03-07T14:30:41;5.70;99.90
7163;DHT22;3623;47.098;15.446;2024-03-07T14:33:11;5.70;99.90
7163;DHT22;3623;47.098;15.446;2024-03-07T14:36:00;5.70;99.90
7163;DHT22;3623;47.098;15.446;2024-03-07T14:38:42;5.80;99.90
7163;DHT22;3623;47.098;15.446;2024-03-07T14:41:12;5.80;99.90
7163;DHT22;3623;47.098;15.446;2024-03-07T14:43:40;5.90;99.90
7163;DHT22;3623;47.098;15.446;2024-03-07T14:46:08;5.80;99.90
7163;DHT22;3623;47.098;15.446;2024-03-07T14:48:38;5.80;99.90
7163;DHT22;3623;47.098;15.446;2024-03-07T14:51:09;5.80;99.90
7163;DHT22;3623;47.098;15.446;2024-03-07T14:53:39;5.80;99.90
7163;DHT22;3623;47.098;15.446;2024-03-07T14:56:07;5.70;99.90
7163;DHT22;3623;47.098;15.446;2024-03-07T14:58:36;5.70;99.90
7163;DHT22;3623;47.098;15.446;2024-03-07T15:01:04;5.70;99.90
7163;DHT22;3623;47.098;15.446;2024-03-07T15:03:32;5.60;99.90
7163;DHT22;3623;47.098;15.446;2024-03-07T15:05:59;5.60;99.90
7163;DHT22;3623;47.098;15.446;2024-03-07T15:08:29;5.60;99.90
7163;DHT22;3623;47.098;15.446;2024-03-07T15:11:04;5.70;99.90
7163;DHT22;3623;47.098;15.446;2024-03-07T15:13:34;5.70;99.90
7163;DHT22;3623;47.098;15.446;2024-03-07T15:16:02;5.70;99.90
7163;DHT22;3623;47.098;15.446;2024-03-07T15:18:29;5.70;99.90
7163;DHT22;3623;47.098;15.446;2024-03-07T15:20:56;5.80;99.90
7163;DHT22;3623;47.098;15.446;2024-03-07T15:23:24;5.80;99.90
7163;DHT22;3623;47.098;15.446;2024-03-07T15:25:52;5.80;99.90
7163;DHT22;3623;47.098;15.446;2024-03-07T15:28:19;5.90;99.90
7163;DHT22;3623;47.098;15.446;2024-03-07T15:30:47;6.00;99.90
7163;DHT22;3623;47.098;15.446;2024-03-07T15:33:15;6.00;99.90
7163;DHT22;3623;47.098;15.446;2024-03-07T15:35:44;6.00;99.90
7163;DHT22;3623;47.098;15.446;2024-03-07T15:38:12;6.00;99.90
7163;DHT22;3623;47.098;15.446;2024-03-07T15:40:43;5.90;99.90
7163;DHT22;3623;47.098;15.446;2024-03-07T15:43:11;5.80;99.90
7163;DHT22;3623;47.098;15.446;2024-03-07T15:45:38;5.80;99.90
7163;DHT22;3623;47.098;15.446;2024-03-07T15:48:07;5.80;99.90
7163;DHT22;3623;47.098;15.446;2024-03-07T15:50:36;5.80;99.90
7163;DHT22;3623;47.098;15.446;2024-03-07T15:53:04;5.80;99.90
7163;DHT22;3623;47.098;15.446;2024-03-07T15:55:32;5.80;99.90
7163;DHT22;3623;47.098;15.446;2024-03-07T15:58:01;5.90;99.90
7163;DHT22;3623;47.098;15.446;2024-03-07T16:00:34;5.90;99.90
7163;DHT22;3623;47.098;15.446;2024-03-07T16:03:03;5.80;99.90
7163;DHT22;3623;47.098;15.446;2024-03-07T16:05:35;5.80;99.90
7163;DHT22;3623;47.098;15.446;2024-03-07T16:08:04;5.80;99.90
7163;DHT22;3623;47.098;15.446;2024-03-07T16:10:33;5.80;99.90
7163;DHT22;3623;47.098;15.446;2024-03-07T16:13:03;5.70;99.90
7163;DHT22;3623;47.098;15.446;2024-03-07T16:15:34;5.70;99.90
7163;DHT22;3623;47.098;15.446;2024-03-07T16:18:02;5.60;99.90
7163;DHT22;3623;47.098;15.446;2024-03-07T16:20:32;5.60;99.90
7163;DHT22;3623;47.098;15.446;2024-03-07T16:23:00;5.60;99.90
7163;DHT22;3623;47.098;15.446;2024-03-07T16:25:31;5.50;99.90
7163;DHT22;3623;47.098;15.446;2024-03-07T16:28:00;5.30;99.90